Time;durP1;ratioP1;P1;durP2;ratioP2;P2;SDS_P1;SDS_P2;PMS_P1;PMS_P2;Temp;Humidity;BMP_temperature;BMP_pressure;BME280_temperature;BME280_humidity;BME280_pressure;Samples;Min_cycle;Max_cycle;Signal;HPM_P1;HPM_P2
2023/09/15 00:00:55;;;;;;;6.85;4.75;;;;;;;;;;5071645;28;20040;-61
2023/09/15 00:03:20;;;;;;;6.95;4.85;;;;;;;;;;5072646;28;20081;-61
2023/09/15 00:05:48;;;;;;;9.73;7.13;;;;;;;;;;5070901;28;20407;-61
2023/09/15 00:08:13;;;;;;;7.40;5.20;;;;;;;;;;5072856;28;20016;-61
2023/09/15 00:10:39;;;;;;;6.70;4.63;;;;;;;;;;5070703;28;20040;-68
2023/09/15 00:13:04;;;;;;;13.45;6.82;;;;;;;;;;5072729;28;20017;-61
2023/09/15 00:15:29;;;;;;;8.80;5.25;;;;;;;;;;5069714;28;20039;-61
2023/09/15 00:17:55;;;;;;;14.97;6.00;;;;;;;;;;5072588;28;20098;-61
2023/09/15 00:20:20;;;;;;;14.07;6.88;;;;;;;;;;5071096;28;20013;-61
2023/09/15 00:22:49;;;;;;;13.53;6.93;;;;;;;;;;5072458;28;20460;-61
2023/09/15 00:25:18;;;;;;;13.70;6.05;;;;;;;;;;5070836;28;20411;-61
2023/09/15 00:27:44;;;;;;;13.40;6.75;;;;;;;;;;5072177;28;20016;-61
2023/09/15 00:30:09;;;;;;;19.55;7.50;;;;;;;;;;5071052;28;20395;-61
2023/09/15 00:32:34;;;;;;;9.27;6.55;;;;;;;;;;5071897;28;20390;-62
2023/09/15 00:34:59;;;;;;;13.90;5.40;;;;;;;;;;5072351;28;20073;-62
2023/09/15 00:37:24;;;;;;;9.10;5.90;;;;;;;;;;5070914;28;20094;-62
2023/09/15 00:39:50;;;;;;;12.45;6.38;;;;;;;;;;5071586;28;20044;-62
2023/09/15 00:42:15;;;;;;;7.60;6.47;;;;;;;;;;5070669;28;20051;-62
2023/09/15 00:44:40;;;;;;;9.73;5.45;;;;;;;;;;5072320;28;20027;-62
2023/09/15 00:47:05;;;;;;;11.82;7.10;;;;;;;;;;5070040;28;20033;-63
2023/09/15 00:49:31;;;;;;;14.43;5.77;;;;;;;;;;5071796;28;20034;-62
2023/09/15 00:51:56;;;;;;;10.87;6.83;;;;;;;;;;5070594;28;20453;-62
2023/09/15 00:54:21;;;;;;;8.00;6.50;;;;;;;;;;5071668;28;20040;-62
2023/09/15 00:56:47;;;;;;;13.40;6.70;;;;;;;;;;5070278;28;20048;-62
2023/09/15 00:59:12;;;;;;;13.03;6.93;;;;;;;;;;5071926;28;20028;-62
2023/09/15 01:01:39;;;;;;;10.70;8.03;;;;;;;;;;5069600;28;20458;-62
2023/09/15 01:04:04;;;;;;;14.57;7.38;;;;;;;;;;5071644;28;20027;-62
2023/09/15 01:06:30;;;;;;;13.02;7.68;;;;;;;;;;5070047;28;20024;-62
2023/09/15 01:08:55;;;;;;;15.10;9.05;;;;;;;;;;5071272;28;20023;-62
2023/09/15 01:11:21;;;;;;;9.47;7.00;;;;;;;;;;5070338;28;20021;-62
2023/09/15 01:13:46;;;;;;;11.35;8.25;;;;;;;;;;5071674;28;20460;-62
2023/09/15 01:16:14;;;;;;;13.18;6.15;;;;;;;;;;5069610;28;20090;-62
2023/09/15 01:18:58;;;;;;;10.88;7.70;;;;;;;;;;5071532;28;20020;-62
2023/09/15 01:21:31;;;;;;;9.30;8.20;;;;;;;;;;5070068;28;20041;-62
2023/09/15 01:24:17;;;;;;;12.57;7.93;;;;;;;;;;5069691;28;20022;-62
2023/09/15 01:26:52;;;;;;;15.23;7.53;;;;;;;;;;5069442;28;20509;-63
2023/09/15 01:29:37;;;;;;;19.30;9.25;;;;;;;;;;5071351;28;20024;-63
2023/09/15 01:32:04;;;;;;;12.05;7.03;;;;;;;;;;5068711;28;20079;-63
2023/09/15 01:34:29;;;;;;;11.57;8.48;;;;;;;;;;5071009;28;20017;-63
2023/09/15 01:36:54;;;;;;;15.68;8.70;;;;;;;;;;5069703;28;20081;-63
2023/09/15 01:39:20;;;;;;;15.30;7.18;;;;;;;;;;5070306;28;20056;-63
2023/09/15 01:41:45;;;;;;;8.82;7.65;;;;;;;;;;5069191;28;20518;-62
2023/09/15 01:44:10;;;;;;;22.17;10.90;;;;;;;;;;5071020;28;20078;-62
2023/09/15 01:46:35;;;;;;;18.73;7.28;;;;;;;;;;5068712;28;20076;-63
2023/09/15 01:49:01;;;;;;;11.73;6.83;;;;;;;;;;5070921;28;20426;-62
2023/09/15 01:51:27;;;;;;;10.93;8.35;;;;;;;;;;5069160;28;20028;-62
2023/09/15 01:53:53;;;;;;;18.48;8.02;;;;;;;;;;5070215;28;20017;-62
2023/09/15 01:56:19;;;;;;;14.18;8.30;;;;;;;;;;5069415;28;20379;-62
2023/09/15 01:58:45;;;;;;;12.38;9.80;;;;;;;;;;5070388;28;20434;-62
2023/09/15 02:01:10;;;;;;;12.85;9.93;;;;;;;;;;5068638;28;20044;-63
2023/09/15 02:03:35;;;;;;;14.63;6.72;;;;;;;;;;5070416;28;20450;-62
2023/09/15 02:06:04;;;;;;;9.20;8.25;;;;;;;;;;5068947;28;20033;-62
2023/09/15 02:08:29;;;;;;;10.85;8.73;;;;;;;;;;5070040;28;20024;-62
2023/09/15 02:10:55;;;;;;;13.13;7.17;;;;;;;;;;5068972;28;20561;-62
2023/09/15 02:13:20;;;;;;;14.15;7.65;;;;;;;;;;5070409;28;20419;-61
2023/09/15 02:15:45;;;;;;;12.35;7.43;;;;;;;;;;5066583;28;20032;-61
2023/09/15 02:18:10;;;;;;;12.07;6.57;;;;;;;;;;5069989;28;20099;-64
2023/09/15 02:20:35;;;;;;;10.95;7.88;;;;;;;;;;5068329;28;20044;-61
2023/09/15 02:23:03;;;;;;;18.53;9.57;;;;;;;;;;5070190;28;20435;-61
2023/09/15 02:25:29;;;;;;;14.33;7.27;;;;;;;;;;5068919;28;20443;-61
2023/09/15 02:27:54;;;;;;;13.73;7.38;;;;;;;;;;5068821;28;20024;-61
2023/09/15 02:30:19;;;;;;;9.23;6.07;;;;;;;;;;5068083;28;20016;-61
2023/09/15 02:32:44;;;;;;;12.33;7.60;;;;;;;;;;5070158;28;20020;-61
2023/09/15 02:35:09;;;;;;;13.83;7.10;;;;;;;;;;5068657;28;20987;-62
2023/09/15 02:37:34;;;;;;;11.85;7.10;;;;;;;;;;5069738;28;20410;-61
2023/09/15 02:40:00;;;;;;;14.40;8.37;;;;;;;;;;5069834;28;20561;-61
2023/09/15 02:42:25;;;;;;;8.20;7.37;;;;;;;;;;5068555;28;20029;-61
2023/09/15 02:44:50;;;;;;;14.57;8.15;;;;;;;;;;5069925;28;20442;-61
2023/09/15 02:47:15;;;;;;;18.83;8.55;;;;;;;;;;5068309;28;20093;-61
2023/09/15 02:49:40;;;;;;;20.50;8.57;;;;;;;;;;5069848;28;20364;-63
2023/09/15 02:52:06;;;;;;;16.40;9.73;;;;;;;;;;5068451;28;20033;-61
2023/09/15 02:54:31;;;;;;;20.58;10.68;;;;;;;;;;5069626;28;20017;-60
2023/09/15 02:56:57;;;;;;;9.90;7.05;;;;;;;;;;5068475;28;20044;-62
2023/09/15 02:59:22;;;;;;;9.50;7.63;;;;;;;;;;5070060;28;20387;-61
2023/09/15 03:01:47;;;;;;;10.93;8.07;;;;;;;;;;5067645;28;20040;-62
2023/09/15 03:04:12;;;;;;;9.05;6.70;;;;;;;;;;5069978;28;20051;-62
2023/09/15 03:06:38;;;;;;;10.20;7.38;;;;;;;;;;5068005;28;20392;-61
2023/09/15 03:09:05;;;;;;;11.73;8.70;;;;;;;;;;5069582;28;20013;-61
2023/09/15 03:11:31;;;;;;;8.98;7.25;;;;;;;;;;5068139;28;20040;-61
2023/09/15 03:13:56;;;;;;;9.15;7.90;;;;;;;;;;5070147;28;20415;-61
2023/09/15 03:16:23;;;;;;;9.55;6.80;;;;;;;;;;5067849;28;20033;-61
2023/09/15 03:18:49;;;;;;;13.52;7.88;;;;;;;;;;5069772;28;20122;-61
2023/09/15 03:21:14;;;;;;;9.98;7.15;;;;;;;;;;5068428;28;20032;-60
2023/09/15 03:23:39;;;;;;;10.70;8.02;;;;;;;;;;5069174;28;20020;-61
2023/09/15 03:26:05;;;;;;;10.73;8.57;;;;;;;;;;5068195;28;20040;-60
2023/09/15 03:28:33;;;;;;;7.57;6.38;;;;;;;;;;5073269;28;20025;-60
2023/09/15 03:30:58;;;;;;;11.65;7.55;;;;;;;;;;5071562;28;20402;-60
2023/09/15 03:33:24;;;;;;;13.90;7.35;;;;;;;;;;5073496;28;20016;-60
2023/09/15 03:35:49;;;;;;;10.10;8.38;;;;;;;;;;5071845;28;20371;-69
2023/09/15 03:38:14;;;;;;;8.55;7.75;;;;;;;;;;5072591;28;20494;-61
2023/09/15 03:40:39;;;;;;;12.57;9.13;;;;;;;;;;5071570;28;20045;-61
2023/09/15 03:43:04;;;;;;;18.45;10.68;;;;;;;;;;5073219;28;20032;-61
2023/09/15 03:45:30;;;;;;;17.70;10.13;;;;;;;;;;5071043;28;20033;-60
2023/09/15 03:47:55;;;;;;;22.47;8.43;;;;;;;;;;5073028;28;20475;-61
2023/09/15 03:50:21;;;;;;;12.07;7.93;;;;;;;;;;5071291;28;20092;-61
2023/09/15 03:52:47;;;;;;;12.18;8.65;;;;;;;;;;5072771;28;20016;-61
2023/09/15 03:55:12;;;;;;;10.35;9.32;;;;;;;;;;5071554;28;20352;-61
2023/09/15 03:57:37;;;;;;;6.70;5.97;;;;;;;;;;5072728;28;20462;-62
2023/09/15 04:00:04;;;;;;;8.13;6.93;;;;;;;;;;5072445;28;20538;-63
2023/09/15 04:02:29;;;;;;;9.93;8.35;;;;;;;;;;5070728;28;20131;-62
2023/09/15 04:04:54;;;;;;;12.88;10.30;;;;;;;;;;5072825;28;20139;-62
2023/09/15 04:07:20;;;;;;;11.80;9.77;;;;;;;;;;5070972;28;20036;-62
2023/09/15 04:09:45;;;;;;;11.98;8.25;;;;;;;;;;5072625;28;20475;-62
2023/09/15 04:12:10;;;;;;;19.08;9.55;;;;;;;;;;5070545;28;20045;-59
2023/09/15 04:14:35;;;;;;;9.05;7.68;;;;;;;;;;5071287;28;20564;-61
2023/09/15 04:17:03;;;;;;;7.70;7.00;;;;;;;;;;5071078;28;20037;-60
2023/09/15 04:19:29;;;;;;;13.77;8.15;;;;;;;;;;5071676;28;20107;-60
2023/09/15 04:21:54;;;;;;;8.80;7.80;;;;;;;;;;5070788;28;20159;-60
2023/09/15 04:24:19;;;;;;;10.57;7.65;;;;;;;;;;5071899;28;20487;-60
2023/09/15 04:26:45;;;;;;;15.07;9.53;;;;;;;;;;5070225;28;20040;-60
2023/09/15 04:29:10;;;;;;;11.48;9.23;;;;;;;;;;5072287;28;20770;-60
2023/09/15 04:31:37;;;;;;;14.45;11.50;;;;;;;;;;5070589;28;20036;-64
2023/09/15 04:34:02;;;;;;;13.93;10.40;;;;;;;;;;5072581;28;20028;-60
2023/09/15 04:36:27;;;;;;;14.02;9.75;;;;;;;;;;5070409;28;20118;-60
2023/09/15 04:38:52;;;;;;;24.20;12.13;;;;;;;;;;5071505;28;20094;-60
2023/09/15 04:41:18;;;;;;;10.30;9.15;;;;;;;;;;5070296;28;20080;-60
2023/09/15 04:43:43;;;;;;;12.95;9.52;;;;;;;;;;5071412;28;20840;-60
2023/09/15 04:46:08;;;;;;;12.82;10.80;;;;;;;;;;5069372;28;20032;-64
2023/09/15 04:48:33;;;;;;;21.13;11.82;;;;;;;;;;5071671;28;20058;-60
2023/09/15 04:50:59;;;;;;;13.98;12.38;;;;;;;;;;5070213;28;20075;-60
2023/09/15 04:53:24;;;;;;;14.73;11.67;;;;;;;;;;5072022;28;20025;-60
2023/09/15 04:55:49;;;;;;;19.88;11.98;;;;;;;;;;5070100;28;20509;-59
2023/09/15 04:58:14;;;;;;;15.55;11.65;;;;;;;;;;5071557;28;20025;-59
2023/09/15 05:00:40;;;;;;;16.70;11.23;;;;;;;;;;5070319;28;20033;-59
2023/09/15 05:03:08;;;;;;;14.90;11.13;;;;;;;;;;5071896;28;20426;-61
2023/09/15 05:05:33;;;;;;;17.38;11.30;;;;;;;;;;5069799;28;20083;-67
2023/09/15 05:07:58;;;;;;;16.67;12.40;;;;;;;;;;5071608;28;20075;-58
2023/09/15 05:10:23;;;;;;;17.42;11.98;;;;;;;;;;5069925;28;20840;-58
2023/09/15 05:12:48;;;;;;;19.33;11.35;;;;;;;;;;5071301;28;20020;-58
2023/09/15 05:15:14;;;;;;;14.97;11.67;;;;;;;;;;5069744;28;20020;-59
2023/09/15 05:17:39;;;;;;;13.10;11.45;;;;;;;;;;5071408;28;20460;-58
2023/09/15 05:20:05;;;;;;;12.00;10.77;;;;;;;;;;5071571;28;20021;-58
2023/09/15 05:22:30;;;;;;;13.52;11.48;;;;;;;;;;5069400;28;20094;-65
2023/09/15 05:24:55;;;;;;;23.98;11.00;;;;;;;;;;5071244;28;20040;-58
2023/09/15 05:27:20;;;;;;;19.13;12.40;;;;;;;;;;5069149;28;20090;-58
2023/09/15 05:29:45;;;;;;;27.87;11.67;;;;;;;;;;5070643;28;20028;-58
2023/09/15 05:32:11;;;;;;;17.48;11.15;;;;;;;;;;5067523;28;20443;-58
2023/09/15 05:34:36;;;;;;;18.85;12.68;;;;;;;;;;5070854;28;20021;-58
2023/09/15 05:37:03;;;;;;;12.65;10.90;;;;;;;;;;5069234;28;20511;-59
2023/09/15 05:39:28;;;;;;;16.90;11.88;;;;;;;;;;5070781;28;20095;-58
2023/09/15 05:41:53;;;;;;;17.13;10.95;;;;;;;;;;5069201;28;20086;-58
2023/09/15 05:44:18;;;;;;;17.17;11.90;;;;;;;;;;5069305;28;20028;-58
2023/09/15 05:46:44;;;;;;;23.30;13.98;;;;;;;;;;5067566;28;20032;-58
2023/09/15 05:49:09;;;;;;;14.20;11.52;;;;;;;;;;5070482;28;20410;-58
2023/09/15 05:51:34;;;;;;;16.35;10.32;;;;;;;;;;5068546;28;20028;-58
2023/09/15 05:53:59;;;;;;;14.30;11.10;;;;;;;;;;5070664;28;20021;-58
2023/09/15 05:56:24;;;;;;;13.97;11.10;;;;;;;;;;5067372;28;20438;-58
2023/09/15 05:58:49;;;;;;;12.53;11.07;;;;;;;;;;5068009;28;20435;-60
2023/09/15 06:01:15;;;;;;;19.13;12.43;;;;;;;;;;5066909;28;20817;-58
2023/09/15 06:03:40;;;;;;;15.00;10.35;;;;;;;;;;5068776;28;20017;-58
2023/09/15 06:06:05;;;;;;;12.63;11.32;;;;;;;;;;5066777;28;20029;-58
2023/09/15 06:08:30;;;;;;;14.53;12.17;;;;;;;;;;5065170;28;20028;-58
2023/09/15 06:10:55;;;;;;;15.50;11.50;;;;;;;;;;5067342;28;20043;-69
2023/09/15 06:13:21;;;;;;;14.43;10.30;;;;;;;;;;5070341;28;20043;-58
2023/09/15 06:15:46;;;;;;;17.02;12.20;;;;;;;;;;5055238;28;20086;-58
2023/09/15 06:18:11;;;;;;;17.17;12.63;;;;;;;;;;5050328;28;20476;-58
2023/09/15 06:20:36;;;;;;;15.88;11.13;;;;;;;;;;5047978;28;20037;-58
2023/09/15 06:23:02;;;;;;;16.33;11.07;;;;;;;;;;5050303;28;20017;-58
2023/09/15 06:25:27;;;;;;;11.50;10.32;;;;;;;;;;5048683;28;20391;-58
2023/09/15 06:27:52;;;;;;;12.70;10.00;;;;;;;;;;5049447;28;20025;-58
2023/09/15 06:30:18;;;;;;;13.67;9.40;;;;;;;;;;5050309;28;20484;-58
2023/09/15 06:32:43;;;;;;;15.00;10.48;;;;;;;;;;5069846;28;20024;-70
2023/09/15 06:35:13;;;;;;;13.97;10.67;;;;;;;;;;5048827;28;20025;-58
2023/09/15 06:37:38;;;;;;;11.93;9.63;;;;;;;;;;5070056;28;20060;-58
2023/09/15 06:40:03;;;;;;;16.25;10.68;;;;;;;;;;5069890;28;20074;-58
2023/09/15 06:42:29;;;;;;;13.52;9.38;;;;;;;;;;5067744;28;20059;-58
2023/09/15 06:44:55;;;;;;;10.90;9.80;;;;;;;;;;5070201;28;20017;-57
2023/09/15 06:47:20;;;;;;;16.10;9.45;;;;;;;;;;5067148;28;20452;-57
2023/09/15 06:49:45;;;;;;;11.95;9.23;;;;;;;;;;5069534;28;20103;-57
2023/09/15 06:52:10;;;;;;;10.90;8.10;;;;;;;;;;5068451;28;20032;-58
2023/09/15 06:54:36;;;;;;;10.23;8.18;;;;;;;;;;5069782;28;20069;-57
2023/09/15 06:57:01;;;;;;;11.65;7.68;;;;;;;;;;5068149;28;20040;-57
2023/09/15 06:59:26;;;;;;;11.00;8.13;;;;;;;;;;5070085;28;20202;-57
2023/09/15 07:01:51;;;;;;;8.70;7.70;;;;;;;;;;5071411;28;20454;-57
2023/09/15 07:04:17;;;;;;;12.55;7.50;;;;;;;;;;5073768;28;20407;-57
2023/09/15 07:06:42;;;;;;;12.55;7.03;;;;;;;;;;5071942;28;20113;-57
2023/09/15 07:09:07;;;;;;;8.18;6.88;;;;;;;;;;5074259;28;20033;-66
2023/09/15 07:11:32;;;;;;;11.07;7.80;;;;;;;;;;5071329;28;20627;-57
2023/09/15 07:13:58;;;;;;;8.50;7.60;;;;;;;;;;5056759;28;20025;-57
2023/09/15 07:16:23;;;;;;;14.40;9.07;;;;;;;;;;5062823;28;20031;-58
2023/09/15 07:18:48;;;;;;;11.52;7.03;;;;;;;;;;5071831;28;20033;-58
2023/09/15 07:21:13;;;;;;;10.90;7.57;;;;;;;;;;5062531;28;20039;-57
2023/09/15 07:23:38;;;;;;;9.03;6.47;;;;;;;;;;5052651;28;20021;-57
2023/09/15 07:26:03;;;;;;;9.13;6.82;;;;;;;;;;5059238;28;20036;-58
2023/09/15 07:28:29;;;;;;;10.40;7.93;;;;;;;;;;5072121;28;20024;-57
2023/09/15 07:31:03;;;;;;;12.63;9.07;;;;;;;;;;5064560;28;20526;-57
2023/09/15 07:33:29;;;;;;;13.77;7.32;;;;;;;;;;5052306;28;20025;-57
2023/09/15 07:36:00;;;;;;;15.65;5.60;;;;;;;;;;5057413;28;20117;-57
2023/09/15 07:38:26;;;;;;;13.88;6.00;;;;;;;;;;5073033;28;20056;-57
2023/09/15 07:40:52;;;;;;;11.18;4.88;;;;;;;;;;5071588;28;20185;-58
2023/09/15 07:43:17;;;;;;;9.52;5.78;;;;;;;;;;5073067;28;20521;-58
2023/09/15 07:45:42;;;;;;;8.68;4.95;;;;;;;;;;5065343;28;20131;-58
2023/09/15 07:48:07;;;;;;;6.73;3.60;;;;;;;;;;5053387;28;20040;-59
2023/09/15 07:50:33;;;;;;;9.53;6.50;;;;;;;;;;5054880;28;20032;-58
2023/09/15 07:52:58;;;;;;;8.75;4.82;;;;;;;;;;5073149;28;20426;-70
2023/09/15 07:55:24;;;;;;;8.50;4.77;;;;;;;;;;5069038;28;20035;-58
2023/09/15 07:57:49;;;;;;;23.20;6.45;;;;;;;;;;5052237;28;20430;-58
2023/09/15 08:00:14;;;;;;;8.77;5.18;;;;;;;;;;5053029;28;20025;-58
2023/09/15 08:02:40;;;;;;;13.80;4.95;;;;;;;;;;5071638;28;20032;-58
2023/09/15 08:05:05;;;;;;;8.90;4.47;;;;;;;;;;5072668;28;20019;-58
2023/09/15 08:07:30;;;;;;;8.57;4.47;;;;;;;;;;5069950;28;20082;-58
2023/09/15 08:09:56;;;;;;;10.88;4.00;;;;;;;;;;5072784;28;20168;-58
2023/09/15 08:12:22;;;;;;;6.60;3.97;;;;;;;;;;5051839;28;20163;-58
2023/09/15 08:14:47;;;;;;;7.88;4.03;;;;;;;;;;5052876;28;20033;-58
2023/09/15 08:17:12;;;;;;;12.05;5.50;;;;;;;;;;5068351;28;20551;-58
2023/09/15 08:19:37;;;;;;;6.18;4.07;;;;;;;;;;5072197;28;20020;-58
2023/09/15 08:22:03;;;;;;;4.28;3.05;;;;;;;;;;5055205;28;20040;-58
2023/09/15 08:24:28;;;;;;;9.02;3.30;;;;;;;;;;5052422;28;20053;-59
2023/09/15 08:26:53;;;;;;;7.32;3.72;;;;;;;;;;5040820;28;20034;-58
2023/09/15 08:29:18;;;;;;;6.80;4.53;;;;;;;;;;5050089;28;20040;-58
2023/09/15 08:31:43;;;;;;;6.30;2.95;;;;;;;;;;5064008;28;20042;-58
2023/09/15 08:34:09;;;;;;;7.43;3.43;;;;;;;;;;5068640;28;20009;-59
2023/09/15 08:36:34;;;;;;;8.47;4.53;;;;;;;;;;5062947;28;20116;-58
2023/09/15 08:38:59;;;;;;;7.40;4.28;;;;;;;;;;5072108;28;20821;-59
2023/09/15 08:41:28;;;;;;;6.97;3.95;;;;;;;;;;5070514;28;20037;-59
2023/09/15 08:43:54;;;;;;;9.88;4.53;;;;;;;;;;5072169;28;20120;-58
2023/09/15 08:46:20;;;;;;;6.35;4.32;;;;;;;;;;5070305;28;20547;-58
2023/09/15 08:48:49;;;;;;;7.05;3.53;;;;;;;;;;5071771;28;20061;-59
2023/09/15 08:51:14;;;;;;;4.03;3.42;;;;;;;;;;5070580;28;20469;-59
2023/09/15 08:53:41;;;;;;;5.87;3.40;;;;;;;;;;5071776;28;20044;-58
2023/09/15 08:56:06;;;;;;;11.50;3.15;;;;;;;;;;5069973;28;20033;-59
2023/09/15 08:58:33;;;;;;;20.65;4.70;;;;;;;;;;5071581;28;20047;-59
2023/09/15 09:00:58;;;;;;;6.05;4.43;;;;;;;;;;5070610;28;20059;-59
2023/09/15 09:03:23;;;;;;;6.38;3.55;;;;;;;;;;5071440;28;20468;-59
2023/09/15 09:05:49;;;;;;;5.85;3.42;;;;;;;;;;5052438;28;20196;-59
2023/09/15 09:08:16;;;;;;;6.75;4.15;;;;;;;;;;5049520;28;20029;-58
2023/09/15 09:10:41;;;;;;;7.57;3.88;;;;;;;;;;5049232;28;20450;-59
2023/09/15 09:13:06;;;;;;;6.15;3.97;;;;;;;;;;5051206;28;20025;-59
2023/09/15 09:15:32;;;;;;;15.97;5.07;;;;;;;;;;5048990;28;20119;-59
2023/09/15 09:17:57;;;;;;;5.20;3.42;;;;;;;;;;5065243;28;20031;-60
2023/09/15 09:20:26;;;;;;;9.97;3.57;;;;;;;;;;5070130;28;20024;-59
2023/09/15 09:22:51;;;;;;;10.23;3.72;;;;;;;;;;5071116;28;20024;-59
2023/09/15 09:25:27;;;;;;;9.07;4.18;;;;;;;;;;5061178;28;20016;-59
2023/09/15 09:27:55;;;;;;;5.95;3.60;;;;;;;;;;5065528;28;20090;-60
2023/09/15 09:30:20;;;;;;;5.30;3.35;;;;;;;;;;5060015;28;20046;-59
2023/09/15 09:32:45;;;;;;;6.70;3.25;;;;;;;;;;5061166;28;20020;-59
2023/09/15 09:35:11;;;;;;;4.20;3.10;;;;;;;;;;5060217;28;20028;-59
2023/09/15 09:37:37;;;;;;;6.43;3.45;;;;;;;;;;5070469;28;20051;-60
2023/09/15 09:40:06;;;;;;;4.93;2.47;;;;;;;;;;5070245;28;20072;-60
2023/09/15 09:42:33;;;;;;;9.95;4.75;;;;;;;;;;5054667;28;20037;-67
2023/09/15 09:44:59;;;;;;;11.75;3.92;;;;;;;;;;5058345;28;20062;-62
2023/09/15 09:47:25;;;;;;;4.78;3.25;;;;;;;;;;5054201;28;20041;-60
2023/09/15 09:49:52;;;;;;;8.52;3.20;;;;;;;;;;5057438;28;20098;-59
2023/09/15 09:52:17;;;;;;;5.75;3.67;;;;;;;;;;5055055;28;20151;-59
2023/09/15 09:54:42;;;;;;;10.30;4.03;;;;;;;;;;5067342;28;20028;-59
2023/09/15 09:57:08;;;;;;;3.72;2.67;;;;;;;;;;5068653;28;20036;-59
2023/09/15 09:59:35;;;;;;;4.57;2.90;;;;;;;;;;5070265;28;20107;-59
2023/09/15 10:02:00;;;;;;;5.57;3.37;;;;;;;;;;5059002;28;20542;-60
2023/09/15 10:04:25;;;;;;;5.75;3.40;;;;;;;;;;5069540;28;20522;-59
2023/09/15 10:06:50;;;;;;;4.97;3.57;;;;;;;;;;5063986;28;20040;-59
2023/09/15 10:09:18;;;;;;;8.35;4.05;;;;;;;;;;5069411;28;20023;-60
2023/09/15 10:11:43;;;;;;;7.22;3.70;;;;;;;;;;5067787;28;20032;-60
2023/09/15 10:14:09;;;;;;;6.40;3.22;;;;;;;;;;5066493;28;20570;-61
2023/09/15 10:16:35;;;;;;;7.65;2.92;;;;;;;;;;5053549;28;20040;-60
2023/09/15 10:19:03;;;;;;;8.43;3.42;;;;;;;;;;5064895;28;20429;-60
2023/09/15 10:21:29;;;;;;;13.15;3.78;;;;;;;;;;5068411;28;20052;-60
2023/09/15 10:24:10;;;;;;;2.85;2.47;;;;;;;;;;5069485;28;20017;-58
2023/09/15 10:26:39;;;;;;;5.00;2.53;;;;;;;;;;5065146;28;20101;-59
2023/09/15 10:29:04;;;;;;;3.17;2.45;;;;;;;;;;5069673;28;20020;-59
2023/09/15 10:31:30;;;;;;;7.57;3.83;;;;;;;;;;5067056;28;20183;-61
2023/09/15 10:33:58;;;;;;;7.60;3.05;;;;;;;;;;5066343;28;20110;-59
2023/09/15 10:36:23;;;;;;;7.45;3.15;;;;;;;;;;5061486;28;20607;-59
2023/09/15 10:38:49;;;;;;;11.53;3.27;;;;;;;;;;5068656;28;20127;-60
2023/09/15 10:41:27;;;;;;;5.22;2.92;;;;;;;;;;5068330;28;20094;-59
2023/09/15 10:43:53;;;;;;;3.75;3.25;;;;;;;;;;5069153;28;20024;-59
2023/09/15 10:46:18;;;;;;;4.40;3.20;;;;;;;;;;5066069;28;20124;-59
2023/09/15 10:48:46;;;;;;;4.77;3.03;;;;;;;;;;5069109;28;20033;-59
2023/09/15 10:51:11;;;;;;;;;;;;;;;;;;5069203;28;20043;-59
2023/09/15 10:53:43;;;;;;;6.65;2.97;;;;;;;;;;5069286;28;19908;-60
2023/09/15 10:56:08;;;;;;;9.40;5.03;;;;;;;;;;5068867;28;20036;-60
2023/09/15 10:58:34;;;;;;;7.17;3.27;;;;;;;;;;5069341;28;20021;-64
2023/09/15 11:01:00;;;;;;;6.20;3.70;;;;;;;;;;5067261;28;20183;-59
2023/09/15 11:03:25;;;;;;;6.25;3.38;;;;;;;;;;5068803;28;20023;-59
2023/09/15 11:05:52;;;;;;;10.82;3.72;;;;;;;;;;5066957;28;20577;-60
2023/09/15 11:08:17;;;;;;;5.10;2.97;;;;;;;;;;5065557;28;20269;-59
2023/09/15 11:10:42;;;;;;;6.25;2.78;;;;;;;;;;5067242;28;20399;-59
2023/09/15 11:13:08;;;;;;;7.13;3.70;;;;;;;;;;5069029;28;20091;-59
2023/09/15 11:15:33;;;;;;;5.80;3.53;;;;;;;;;;5067147;28;20040;-59
2023/09/15 11:17:58;;;;;;;11.03;4.50;;;;;;;;;;5068383;28;20078;-59
2023/09/15 11:20:23;;;;;;;6.77;4.13;;;;;;;;;;5050385;28;20459;-59
2023/09/15 11:22:55;;;;;;;7.90;4.20;;;;;;;;;;5069194;28;20837;-59
2023/09/15 11:25:20;;;;;;;4.97;2.83;;;;;;;;;;5066205;28;20020;-59
2023/09/15 11:27:47;;;;;;;8.60;3.93;;;;;;;;;;5068642;28;20022;-59
2023/09/15 11:30:12;;;;;;;5.43;3.75;;;;;;;;;;5068149;28;20556;-60
2023/09/15 11:32:37;;;;;;;9.80;4.00;;;;;;;;;;5069011;28;20529;-59
2023/09/15 11:35:05;;;;;;;8.23;4.10;;;;;;;;;;5065962;28;20020;-59
2023/09/15 11:37:30;;;;;;;;;;;;;;;;;;5065992;28;20411;-59
2023/09/15 11:39:56;;;;;;;5.03;3.35;;;;;;;;;;5068894;28;19916;-59
2023/09/15 11:42:22;;;;;;;3.95;3.38;;;;;;;;;;5056429;28;20087;-60
2023/09/15 11:44:47;;;;;;;11.40;5.70;;;;;;;;;;5048327;28;20010;-59
2023/09/15 11:47:12;;;;;;;6.93;2.70;;;;;;;;;;5062276;28;20386;-60
2023/09/15 11:49:37;;;;;;;5.78;2.95;;;;;;;;;;5072185;28;20446;-59
2023/09/15 11:52:03;;;;;;;9.37;4.20;;;;;;;;;;5071440;28;20036;-59
2023/09/15 11:54:30;;;;;;;8.18;3.83;;;;;;;;;;5072733;28;20423;-59
2023/09/15 11:56:56;;;;;;;5.38;3.90;;;;;;;;;;5071428;28;20131;-59
2023/09/15 11:59:21;;;;;;;7.75;3.78;;;;;;;;;;5072922;28;20051;-59
2023/09/15 12:01:48;;;;;;;5.57;2.92;;;;;;;;;;5070514;28;20052;-59
2023/09/15 12:04:13;;;;;;;4.18;3.78;;;;;;;;;;5071904;28;20024;-59
2023/09/15 12:06:40;;;;;;;7.07;3.38;;;;;;;;;;5065261;28;20037;-62
2023/09/15 12:09:05;;;;;;;7.43;4.53;;;;;;;;;;5052419;28;20013;-59
2023/09/15 12:11:30;;;;;;;7.82;4.00;;;;;;;;;;5061874;28;20081;-59
2023/09/15 12:13:56;;;;;;;5.50;3.47;;;;;;;;;;5071192;28;20017;-59
2023/09/15 12:16:25;;;;;;;8.63;2.92;;;;;;;;;;5070207;28;20066;-59
2023/09/15 12:18:51;;;;;;;4.60;3.03;;;;;;;;;;5071303;28;20013;-59
2023/09/15 12:21:16;;;;;;;8.10;3.75;;;;;;;;;;5070597;28;20388;-60
2023/09/15 12:23:42;;;;;;;4.95;3.22;;;;;;;;;;5072164;28;20016;-59
2023/09/15 12:26:07;;;;;;;6.90;3.50;;;;;;;;;;5070861;28;20080;-62
2023/09/15 12:28:34;;;;;;;5.50;3.58;;;;;;;;;;5072279;28;20024;-60
2023/09/15 12:30:59;;;;;;;5.43;4.13;;;;;;;;;;5070727;28;20060;-60
2023/09/15 12:33:26;;;;;;;6.17;3.50;;;;;;;;;;5067232;28;20052;-60
2023/09/15 12:35:51;;;;;;;6.28;3.45;;;;;;;;;;5050141;28;20041;-67
2023/09/15 12:38:19;;;;;;;6.43;3.60;;;;;;;;;;5070616;28;20071;-59
2023/09/15 12:40:48;;;;;;;4.32;3.45;;;;;;;;;;5070035;28;20504;-60
2023/09/15 12:43:14;;;;;;;4.22;3.70;;;;;;;;;;5071681;28;20020;-59
2023/09/15 12:45:39;;;;;;;6.45;4.47;;;;;;;;;;5066875;28;20054;-59
2023/09/15 12:48:04;;;;;;;5.90;3.83;;;;;;;;;;5051821;28;20502;-59
2023/09/15 12:50:31;;;;;;;5.20;4.03;;;;;;;;;;5043244;28;20063;-60
2023/09/15 12:52:57;;;;;;;5.57;4.07;;;;;;;;;;5070761;28;20378;-59
2023/09/15 12:55:22;;;;;;;4.45;2.90;;;;;;;;;;5070195;28;20020;-59
2023/09/15 12:57:47;;;;;;;7.37;4.47;;;;;;;;;;5070504;28;20024;-58
2023/09/15 13:00:13;;;;;;;3.88;3.47;;;;;;;;;;5068544;28;20020;-59
2023/09/15 13:02:38;;;;;;;3.90;3.05;;;;;;;;;;5071382;28;20177;-59
2023/09/15 13:05:04;;;;;;;6.50;3.23;;;;;;;;;;5071892;28;20464;-59
2023/09/15 13:07:30;;;;;;;8.73;3.45;;;;;;;;;;5069578;28;20450;-59
2023/09/15 13:09:55;;;;;;;7.47;3.73;;;;;;;;;;5071736;28;20016;-59
2023/09/15 13:12:20;;;;;;;6.97;4.00;;;;;;;;;;5069380;28;20656;-59
2023/09/15 13:14:47;;;;;;;5.23;4.13;;;;;;;;;;5059641;28;20798;-59
2023/09/15 13:17:12;;;;;;;6.40;3.60;;;;;;;;;;5065983;28;20178;-59
2023/09/15 13:19:37;;;;;;;6.23;3.83;;;;;;;;;;5069531;28;20124;-59
2023/09/15 13:22:03;;;;;;;8.83;3.40;;;;;;;;;;5069756;28;20047;-59
2023/09/15 13:24:28;;;;;;;5.60;3.35;;;;;;;;;;5068854;28;20032;-59
2023/09/15 13:26:54;;;;;;;6.47;2.80;;;;;;;;;;5059272;28;20032;-59
2023/09/15 13:29:19;;;;;;;5.03;3.10;;;;;;;;;;5063413;28;20545;-59
2023/09/15 13:31:44;;;;;;;5.22;4.18;;;;;;;;;;5068612;28;20032;-59
2023/09/15 13:34:10;;;;;;;6.85;3.35;;;;;;;;;;5070339;28;20082;-59
2023/09/15 13:36:35;;;;;;;6.00;3.05;;;;;;;;;;5068855;28;20032;-59
2023/09/15 13:39:00;;;;;;;8.57;3.80;;;;;;;;;;5070425;28;20086;-59
2023/09/15 13:41:25;;;;;;;7.75;2.80;;;;;;;;;;5069380;28;20036;-59
2023/09/15 13:43:51;;;;;;;11.65;5.97;;;;;;;;;;5070171;28;20423;-59
2023/09/15 13:46:16;;;;;;;5.77;3.70;;;;;;;;;;5065626;28;20403;-59
2023/09/15 13:48:41;;;;;;;6.65;3.90;;;;;;;;;;5068884;28;20050;-67
2023/09/15 13:51:06;;;;;;;10.17;5.00;;;;;;;;;;5068302;28;20056;-59
2023/09/15 13:53:35;;;;;;;4.10;3.47;;;;;;;;;;5070410;28;20474;-60
2023/09/15 13:56:00;;;;;;;5.22;3.10;;;;;;;;;;5069402;28;20025;-59
2023/09/15 13:58:25;;;;;;;4.68;3.47;;;;;;;;;;5068492;28;20112;-59
2023/09/15 14:01:01;;;;;;;5.43;3.07;;;;;;;;;;5068557;28;20060;-59
2023/09/15 14:03:27;;;;;;;4.97;3.38;;;;;;;;;;5066771;28;20566;-59
2023/09/15 14:05:53;;;;;;;5.35;3.03;;;;;;;;;;5068052;28;20551;-59
2023/09/15 14:08:18;;;;;;;7.55;3.22;;;;;;;;;;5070084;28;20081;-62
2023/09/15 14:10:43;;;;;;;6.77;2.80;;;;;;;;;;5068520;28;20484;-59
2023/09/15 14:13:09;;;;;;;5.35;3.47;;;;;;;;;;5070122;28;20063;-59
2023/09/15 14:15:34;;;;;;;5.18;3.60;;;;;;;;;;5067928;28;20036;-59
2023/09/15 14:17:59;;;;;;;5.80;3.75;;;;;;;;;;5069794;28;20108;-59
2023/09/15 14:20:24;;;;;;;9.13;2.60;;;;;;;;;;5068894;28;20066;-66
2023/09/15 14:22:49;;;;;;;8.30;3.80;;;;;;;;;;5069631;28;20013;-59
2023/09/15 14:25:15;;;;;;;4.40;3.60;;;;;;;;;;5068202;28;20693;-65
2023/09/15 14:27:41;;;;;;;3.30;2.75;;;;;;;;;;5069381;28;20020;-60